createdAt,value
2024-01-12T00:01:13.399Z,-1.40
2024-01-12T00:06:07.877Z,-1.40
2024-01-12T00:08:35.060Z,-1.40
2024-01-12T00:11:01.970Z,-1.40
2024-01-12T00:13:28.648Z,-1.50
2024-01-12T00:18:23.117Z,-1.40
2024-01-12T00:20:50.220Z,-1.50
2024-01-12T00:23:17.186Z,-1.60
2024-01-12T00:25:43.925Z,-1.60
2024-01-12T00:28:13.017Z,-1.60
2024-01-12T00:30:41.608Z,-1.60
2024-01-12T00:33:09.029Z,-1.70
2024-01-12T00:35:35.911Z,-1.60
2024-01-12T00:38:02.662Z,-1.60
2024-01-12T00:42:56.810Z,-1.70
2024-01-12T00:50:18.193Z,-1.70
2024-01-12T00:52:45.689Z,-1.70
2024-01-12T00:55:12.864Z,-1.70
2024-01-12T01:00:07.693Z,-1.70
2024-01-12T01:02:34.469Z,-1.70
2024-01-12T01:05:01.194Z,-1.80
2024-01-12T01:07:29.465Z,-1.80
2024-01-12T01:09:56.539Z,-1.80
2024-01-12T01:12:23.369Z,-1.80
2024-01-12T01:14:50.171Z,-1.80
2024-01-12T01:17:17.061Z,-1.80
2024-01-12T01:19:43.978Z,-1.80
2024-01-12T01:22:10.740Z,-1.80
2024-01-12T01:24:37.440Z,-1.90
2024-01-12T01:27:04.273Z,-1.90
2024-01-12T01:31:58.743Z,-1.90
2024-01-12T01:34:25.630Z,-1.90
2024-01-12T01:36:52.484Z,-1.90
2024-01-12T01:39:19.208Z,-1.90
2024-01-12T01:41:45.953Z,-1.90
2024-01-12T01:44:12.759Z,-2.00
2024-01-12T01:46:39.792Z,-2.00
2024-01-12T01:49:06.757Z,-1.90
2024-01-12T01:51:33.984Z,-2.00
2024-01-12T01:54:00.896Z,-2.00
2024-01-12T01:56:27.711Z,-2.00
2024-01-12T01:58:54.666Z,-2.00
2024-01-12T02:01:21.694Z,-2.10
2024-01-12T02:03:50.167Z,-2.10
2024-01-12T02:06:17.670Z,-2.10
2024-01-12T02:08:45.417Z,-2.10
2024-01-12T02:11:12.382Z,-2.10
2024-01-12T02:13:39.105Z,-2.10
2024-01-12T02:16:08.646Z,-2.10
2024-01-12T02:18:36.504Z,-2.10
2024-01-12T02:21:03.452Z,-1.90
2024-01-12T02:30:52.430Z,-2.20
2024-01-12T02:33:19.265Z,-2.20
2024-01-12T02:35:46.136Z,-2.30
2024-01-12T02:38:12.970Z,-2.30
2024-01-12T02:40:39.693Z,-2.30
2024-01-12T02:43:07.387Z,-2.30
2024-01-12T02:45:34.676Z,-2.30
2024-01-12T02:48:01.478Z,-2.30
2024-01-12T02:50:28.293Z,-2.40
2024-01-12T02:52:54.985Z,-2.40
2024-01-12T02:55:22.234Z,-2.40
2024-01-12T02:57:48.941Z,-2.40
2024-01-12T03:00:16.092Z,-2.60
2024-01-12T03:02:42.916Z,-2.40
2024-01-12T03:05:09.881Z,-2.40
2024-01-12T03:10:06.228Z,-2.40
2024-01-12T03:12:32.914Z,-2.50
2024-01-12T03:14:59.694Z,-2.50
2024-01-12T03:17:26.597Z,-2.50
2024-01-12T03:19:53.402Z,-2.50
2024-01-12T03:22:20.152Z,-2.50
2024-01-12T03:24:46.815Z,-2.50
2024-01-12T03:27:13.542Z,-0.70
2024-01-12T03:29:40.273Z,-2.50
2024-01-12T03:32:07.122Z,-2.60
2024-01-12T03:34:34.220Z,-2.60
2024-01-12T03:39:28.043Z,-1.40
2024-01-12T03:41:55.316Z,-2.60
2024-01-12T03:44:22.045Z,-2.60
2024-01-12T03:46:48.777Z,-2.60
2024-01-12T03:49:15.676Z,-2.60
2024-01-12T03:51:45.592Z,-2.70
2024-01-12T03:54:12.293Z,-2.70
2024-01-12T03:56:39.064Z,-2.70
2024-01-12T03:59:05.842Z,-2.70
2024-01-12T04:01:32.531Z,-2.70
2024-01-12T04:03:59.412Z,-2.70
2024-01-12T04:06:26.265Z,-2.70
2024-01-12T04:08:53.069Z,-2.80
2024-01-12T04:11:23.674Z,-2.80
2024-01-12T04:13:50.407Z,-2.80
2024-01-12T04:16:17.047Z,-2.80
2024-01-12T04:21:11.414Z,-2.80
2024-01-12T04:23:39.644Z,-2.80
2024-01-12T04:26:09.487Z,-2.80
2024-01-12T04:28:36.703Z,-2.90
2024-01-12T04:31:03.988Z,-2.90
2024-01-12T04:33:34.972Z,-2.90
2024-01-12T04:38:30.105Z,-2.90
2024-01-12T04:40:56.855Z,-2.90
2024-01-12T04:43:23.698Z,-2.90
2024-01-12T04:45:50.579Z,-3.00
2024-01-12T04:50:44.612Z,-2.90
2024-01-12T04:53:11.333Z,-3.00
2024-01-12T04:55:38.076Z,-3.00
2024-01-12T04:58:05.438Z,-3.00
2024-01-12T05:00:32.208Z,-3.00
2024-01-12T05:07:53.451Z,-3.10
2024-01-12T05:12:47.336Z,-3.10
2024-01-12T05:15:14.127Z,-3.10
2024-01-12T05:17:41.011Z,-3.10
2024-01-12T05:20:08.707Z,-3.20
2024-01-12T05:22:37.066Z,-3.20
2024-01-12T05:25:07.797Z,-3.20
2024-01-12T05:27:34.661Z,-3.20
2024-01-12T05:30:04.037Z,-3.20
2024-01-12T05:32:31.765Z,-3.20
2024-01-12T05:37:26.105Z,-3.20
2024-01-12T05:39:52.896Z,-3.20
2024-01-12T05:42:19.546Z,-3.30
2024-01-12T05:44:46.232Z,-3.30
2024-01-12T05:52:08.135Z,-3.30
2024-01-12T05:54:34.770Z,-3.30
2024-01-12T05:59:28.715Z,-3.30
2024-01-12T06:01:55.589Z,-3.30
2024-01-12T06:04:22.341Z,-3.40
2024-01-12T06:06:49.989Z,-3.40
2024-01-12T06:11:45.614Z,-3.40
2024-01-12T06:14:15.501Z,-3.40
2024-01-12T06:16:42.760Z,-3.40
2024-01-12T06:21:37.555Z,-3.40
2024-01-12T06:24:04.572Z,-3.40
2024-01-12T06:26:31.247Z,-3.50
2024-01-12T06:31:32.832Z,-3.50
2024-01-12T06:36:26.795Z,-3.50
2024-01-12T06:46:18.155Z,-3.50
2024-01-12T06:48:44.831Z,-3.50
2024-01-12T06:53:38.750Z,-3.50
2024-01-12T06:56:07.826Z,-3.60
2024-01-12T07:01:01.642Z,-3.60
2024-01-12T07:05:57.521Z,-3.60
2024-01-12T07:20:41.357Z,-3.70
2024-01-12T07:23:08.108Z,-3.80
2024-01-12T07:28:04.171Z,-3.80
2024-01-12T07:30:30.999Z,-3.90
2024-01-12T07:32:57.965Z,-3.90
2024-01-12T07:35:24.849Z,-3.90
2024-01-12T07:37:51.583Z,-5.10
2024-01-12T07:40:18.604Z,-3.90
2024-01-12T07:50:10.894Z,-4.00
2024-01-12T07:55:04.910Z,-4.00
2024-01-12T07:57:31.741Z,-4.00
2024-01-12T07:59:59.481Z,-4.00
2024-01-12T08:07:20.576Z,-4.00
2024-01-12T08:14:42.325Z,-4.00
2024-01-12T08:17:09.040Z,-4.10
2024-01-12T08:19:35.706Z,-4.10
2024-01-12T08:26:59.526Z,-4.10
2024-01-12T08:31:53.504Z,-4.10
2024-01-12T08:39:15.620Z,-4.10
2024-01-12T08:41:42.335Z,-4.10
2024-01-12T08:44:09.042Z,-4.10
2024-01-12T08:51:30.443Z,-4.10
2024-01-12T08:53:59.898Z,-4.10
2024-01-12T08:56:26.776Z,-4.50
2024-01-12T08:58:53.536Z,-4.10
2024-01-12T09:01:20.944Z,-4.10
2024-01-12T09:03:50.733Z,-4.10
2024-01-12T09:06:19.613Z,-4.10
2024-01-12T09:11:13.546Z,-4.10
2024-01-12T09:13:40.200Z,-4.00
2024-01-12T09:16:11.198Z,-4.10
2024-01-12T09:18:38.565Z,-4.10
2024-01-12T09:21:06.028Z,-4.10
2024-01-12T09:23:33.061Z,-4.10
2024-01-12T09:28:27.207Z,-4.00
2024-01-12T09:30:54.070Z,-4.00
2024-01-12T09:33:21.073Z,-4.10
2024-01-12T09:35:47.902Z,-4.10
2024-01-12T09:38:14.915Z,-4.00
2024-01-12T09:40:41.628Z,-4.00
2024-01-12T09:45:45.412Z,-4.00
2024-01-12T09:48:13.141Z,-4.00
2024-01-12T09:50:40.581Z,-4.00
2024-01-12T09:53:07.872Z,-3.90
2024-01-12T09:55:34.643Z,-3.80
2024-01-12T09:58:02.858Z,-3.80
2024-01-12T10:00:32.481Z,-3.80
2024-01-12T10:02:59.623Z,-3.80
2024-01-12T10:07:54.046Z,-4.50
2024-01-12T10:10:20.747Z,-3.70
2024-01-12T10:12:50.540Z,-3.70
2024-01-12T10:15:17.278Z,-3.60
2024-01-12T10:17:44.130Z,-3.60
2024-01-12T10:20:11.255Z,-3.50
2024-01-12T10:22:38.119Z,-3.50
2024-01-12T10:25:05.607Z,-3.40
2024-01-12T10:27:32.661Z,-3.40
2024-01-12T10:29:59.812Z,-3.40
2024-01-12T10:32:27.678Z,-3.40
2024-01-12T10:34:55.285Z,-3.20
2024-01-12T10:37:22.879Z,-3.20
2024-01-12T10:39:51.197Z,-3.10
2024-01-12T10:42:18.894Z,-3.10
2024-01-12T10:44:46.536Z,-3.10
2024-01-12T10:47:20.927Z,-3.00
2024-01-12T10:49:52.551Z,-3.00
2024-01-12T10:52:25.161Z,-3.00
2024-01-12T10:55:09.678Z,-2.90
2024-01-12T10:57:38.554Z,-2.90
2024-01-12T11:00:06.609Z,-2.80
2024-01-12T11:02:33.685Z,-2.70
2024-01-12T11:05:01.299Z,-2.70
2024-01-12T11:07:28.767Z,-2.70
2024-01-12T11:09:56.658Z,-2.60
2024-01-12T11:12:31.247Z,-2.60
2024-01-12T11:14:58.080Z,-2.50
2024-01-12T11:17:31.851Z,-2.50
2024-01-12T11:20:12.601Z,-2.50
2024-01-12T11:22:40.817Z,-2.50
2024-01-12T11:25:08.074Z,-2.40
2024-01-12T11:30:04.943Z,-2.40
2024-01-12T11:32:32.236Z,-2.30
2024-01-12T11:35:19.844Z,-2.30
2024-01-12T11:38:08.349Z,-2.30
2024-01-12T11:43:05.471Z,-2.10
2024-01-12T11:45:33.957Z,-2.10
2024-01-12T11:48:03.434Z,-2.00
2024-01-12T11:50:30.350Z,-2.10
2024-01-12T11:53:01.657Z,-2.00
2024-01-12T11:55:28.924Z,-2.00
2024-01-12T11:57:55.996Z,-1.90
2024-01-12T12:00:24.549Z,-1.80
2024-01-12T12:05:24.302Z,-1.80
2024-01-12T12:07:51.714Z,-1.70
2024-01-12T12:10:23.528Z,-1.60
2024-01-12T12:12:56.466Z,-1.40
2024-01-12T12:15:23.122Z,-1.60
2024-01-12T12:20:17.440Z,-1.40
2024-01-12T12:22:45.749Z,-1.30
2024-01-12T12:25:16.596Z,-1.30
2024-01-12T12:27:46.057Z,-1.30
2024-01-12T12:30:15.643Z,-1.30
2024-01-12T12:32:44.359Z,-1.20
2024-01-12T12:37:42.612Z,-1.00
2024-01-12T12:40:12.728Z,-0.90
2024-01-12T12:42:44.560Z,-1.00
2024-01-12T12:45:12.756Z,-0.80
2024-01-12T12:47:40.922Z,-0.80
2024-01-12T12:50:12.834Z,-0.70
2024-01-12T12:52:40.638Z,-0.70
2024-01-12T12:55:08.228Z,-0.60
2024-01-12T12:57:35.790Z,-0.50
2024-01-12T13:00:03.152Z,-0.50
2024-01-12T13:02:30.041Z,-0.40
2024-01-12T13:07:24.053Z,-0.30
2024-01-12T13:09:55.573Z,-0.20
2024-01-12T13:12:23.819Z,-0.20
2024-01-12T13:17:22.968Z,0.10
2024-01-12T13:19:49.886Z,0.10
2024-01-12T13:22:16.793Z,0.20
2024-01-12T13:24:44.423Z,0.30
2024-01-12T13:27:11.326Z,0.30
2024-01-12T13:29:38.094Z,0.40
2024-01-12T13:37:03.836Z,0.60
2024-01-12T13:39:31.483Z,0.70
2024-01-12T13:42:02.290Z,0.60
2024-01-12T13:44:29.468Z,0.80
2024-01-12T13:46:56.313Z,0.80
2024-01-12T13:49:23.652Z,0.90
2024-01-12T13:51:50.765Z,0.80
2024-01-12T13:54:17.921Z,0.90
2024-01-12T13:59:12.140Z,1.00
2024-01-12T14:04:06.954Z,1.10
2024-01-12T14:06:37.236Z,1.00
2024-01-12T14:09:06.312Z,1.10
2024-01-12T14:11:36.874Z,1.10
2024-01-12T14:14:03.919Z,2.70
2024-01-12T14:16:30.999Z,1.20
2024-01-12T14:18:58.248Z,1.20
2024-01-12T14:21:25.043Z,1.20
2024-01-12T14:23:52.121Z,1.30
2024-01-12T14:26:18.979Z,1.20
2024-01-12T14:28:47.131Z,1.30
2024-01-12T14:31:13.991Z,1.30
2024-01-12T14:33:42.808Z,1.30
2024-01-12T14:36:10.079Z,1.30
2024-01-12T14:38:36.804Z,1.30
2024-01-12T14:41:04.648Z,1.30
2024-01-12T14:43:31.556Z,1.30
2024-01-12T14:45:58.995Z,1.30
2024-01-12T14:48:26.265Z,1.30
2024-01-12T14:50:53.508Z,1.30
2024-01-12T14:53:20.375Z,1.30
2024-01-12T14:55:47.184Z,1.30
2024-01-12T14:58:14.035Z,1.20
2024-01-12T15:03:08.541Z,1.20
2024-01-12T15:08:05.212Z,1.20
2024-01-12T15:10:32.149Z,1.10
2024-01-12T15:12:58.980Z,1.10
2024-01-12T15:15:26.818Z,1.10
2024-01-12T15:20:22.206Z,1.00
2024-01-12T15:22:49.056Z,1.00
2024-01-12T15:25:16.043Z,1.00
2024-01-12T15:27:42.933Z,1.00
2024-01-12T15:30:10.321Z,0.90
2024-01-12T15:32:37.553Z,0.90
2024-01-12T15:35:05.105Z,0.90
2024-01-12T15:37:31.818Z,0.90
2024-01-12T15:39:58.613Z,0.80
2024-01-12T15:42:32.818Z,0.90
2024-01-12T15:45:06.495Z,0.80
2024-01-12T15:47:33.875Z,0.80
2024-01-12T15:50:00.777Z,0.80
2024-01-12T15:54:54.626Z,0.80
2024-01-12T15:57:21.287Z,0.70
2024-01-12T15:59:48.811Z,0.80
2024-01-12T16:02:17.285Z,0.80
2024-01-12T16:04:44.121Z,0.80
2024-01-12T16:07:10.867Z,0.70
2024-01-12T16:09:38.149Z,0.60
2024-01-12T16:12:07.367Z,0.70
2024-01-12T16:14:41.952Z,0.70
2024-01-12T16:17:08.846Z,0.70
2024-01-12T16:19:48.161Z,0.70
2024-01-12T16:22:15.383Z,2.30
2024-01-12T16:29:38.625Z,0.70
2024-01-12T16:32:05.779Z,0.70
2024-01-12T16:34:32.829Z,0.70
2024-01-12T16:36:59.680Z,0.60
2024-01-12T16:39:26.420Z,0.60
2024-01-12T16:41:57.025Z,0.60
2024-01-12T16:44:26.244Z,0.60
2024-01-12T16:46:54.228Z,0.60
2024-01-12T16:51:52.645Z,0.70
2024-01-12T16:54:19.345Z,0.60
2024-01-12T16:56:46.137Z,-1.00
2024-01-12T16:59:13.241Z,0.60
2024-01-12T17:01:40.689Z,0.60
2024-01-12T17:04:07.693Z,0.60
2024-01-12T17:06:43.682Z,0.60
2024-01-12T17:09:11.116Z,0.60
2024-01-12T17:11:44.023Z,0.60
2024-01-12T17:14:10.931Z,0.60
2024-01-12T17:16:38.989Z,0.60
2024-01-12T17:19:06.995Z,0.60
2024-01-12T17:21:33.910Z,0.60
2024-01-12T17:26:28.518Z,0.60
2024-01-12T17:28:55.410Z,0.60
2024-01-12T17:31:22.212Z,0.20
2024-01-12T17:33:49.050Z,0.60
2024-01-12T17:36:15.925Z,0.60
2024-01-12T17:41:09.736Z,0.50
2024-01-12T17:43:36.446Z,0.50
2024-01-12T17:46:03.461Z,0.60
2024-01-12T17:48:31.415Z,0.50
2024-01-12T17:53:25.526Z,0.50
2024-01-12T17:55:52.268Z,0.50
2024-01-12T17:58:19.459Z,0.50
2024-01-12T18:00:46.497Z,0.50
2024-01-12T18:03:13.431Z,0.50
2024-01-12T18:05:40.366Z,0.50
2024-01-12T18:08:07.076Z,0.50
2024-01-12T18:10:34.204Z,0.50
2024-01-12T18:13:00.895Z,0.50
2024-01-12T18:15:27.588Z,0.50
2024-01-12T18:17:54.520Z,0.50
2024-01-12T18:20:21.364Z,0.50
2024-01-12T18:22:48.028Z,0.40
2024-01-12T18:27:43.968Z,0.50
2024-01-12T18:35:06.504Z,0.50
2024-01-12T18:37:33.686Z,0.50
2024-01-12T18:40:00.483Z,0.40
2024-01-12T18:42:27.180Z,0.40
2024-01-12T18:44:53.838Z,0.40
2024-01-12T18:47:20.635Z,0.40
2024-01-12T18:49:47.372Z,0.50
2024-01-12T18:52:15.683Z,0.40
2024-01-12T18:54:42.386Z,0.50
2024-01-12T18:57:09.241Z,0.40
2024-01-12T18:59:35.997Z,0.40
2024-01-12T19:04:30.218Z,0.50
2024-01-12T19:06:56.959Z,0.50
2024-01-12T19:09:23.621Z,0.50
2024-01-12T19:11:50.625Z,0.40
2024-01-12T19:14:17.326Z,0.50
2024-01-12T19:19:13.642Z,0.50
2024-01-12T19:21:40.578Z,0.40
2024-01-12T19:24:07.375Z,0.40
2024-01-12T19:29:01.560Z,0.50
2024-01-12T19:31:28.631Z,0.40
2024-01-12T19:33:55.896Z,0.50
2024-01-12T19:36:22.926Z,0.50
2024-01-12T19:38:49.677Z,0.40
2024-01-12T19:41:24.051Z,0.40
2024-01-12T19:43:51.200Z,0.50
2024-01-12T19:46:18.397Z,0.40
2024-01-12T19:48:45.377Z,0.50
2024-01-12T19:51:12.287Z,0.50
2024-01-12T19:53:39.099Z,0.50
2024-01-12T19:56:05.950Z,0.50
2024-01-12T19:58:33.112Z,0.50
2024-01-12T20:01:04.024Z,0.50
2024-01-12T20:03:31.423Z,0.50
2024-01-12T20:06:01.554Z,0.50
2024-01-12T20:10:55.571Z,0.40
2024-01-12T20:15:54.719Z,0.50
2024-01-12T20:18:21.563Z,0.70
2024-01-12T20:20:48.487Z,0.50
2024-01-12T20:23:20.688Z,0.50
2024-01-12T20:25:52.082Z,0.50
2024-01-12T20:28:22.001Z,0.50
2024-01-12T20:30:49.249Z,0.50
2024-01-12T20:33:21.961Z,0.50
2024-01-12T20:35:51.569Z,0.50
2024-01-12T20:38:26.697Z,0.50
2024-01-12T20:41:18.164Z,0.40
2024-01-12T20:43:45.689Z,1.70
2024-01-12T20:46:13.495Z,0.40
2024-01-12T20:48:46.717Z,0.50
2024-01-12T20:51:17.594Z,0.50
2024-01-12T20:53:50.432Z,0.50
2024-01-12T20:56:22.546Z,0.50
2024-01-12T20:58:55.583Z,0.50
2024-01-12T21:01:25.665Z,0.50
2024-01-12T21:03:59.381Z,0.50
2024-01-12T21:06:30.068Z,0.50
2024-01-12T21:09:04.794Z,0.50
2024-01-12T21:11:35.253Z,0.50
2024-01-12T21:14:03.312Z,0.50
2024-01-12T21:16:41.548Z,0.50
2024-01-12T21:19:14.874Z,0.50
2024-01-12T21:21:51.085Z,0.50
2024-01-12T21:24:20.780Z,0.40
2024-01-12T21:26:50.635Z,0.40
2024-01-12T21:29:21.134Z,1.00
2024-01-12T21:34:29.189Z,0.50
2024-01-12T21:37:06.552Z,0.50
2024-01-12T21:39:44.679Z,0.50
2024-01-12T21:42:17.465Z,0.50
2024-01-12T21:44:54.128Z,0.50
2024-01-12T21:47:28.307Z,0.50
2024-01-12T21:49:58.236Z,0.50
2024-01-12T21:52:28.968Z,0.50
2024-01-12T21:54:59.633Z,0.50
2024-01-12T21:57:45.102Z,0.50
2024-01-12T22:00:19.259Z,0.50
2024-01-12T22:02:54.735Z,0.50
2024-01-12T22:05:30.713Z,0.50
2024-01-12T22:07:57.972Z,0.40
2024-01-12T22:10:26.760Z,0.40
2024-01-12T22:12:59.133Z,0.50
2024-01-12T22:15:28.442Z,0.50
2024-01-12T22:17:58.775Z,0.40
2024-01-12T22:20:29.248Z,0.40
2024-01-12T22:23:01.629Z,0.40
2024-01-12T22:25:39.372Z,0.50
2024-01-12T22:28:11.777Z,0.50
2024-01-12T22:33:34.377Z,0.50
2024-01-12T22:36:01.583Z,0.50
2024-01-12T22:38:31.820Z,0.50
2024-01-12T22:41:01.036Z,0.50
2024-01-12T22:43:45.533Z,0.50
2024-01-12T22:46:24.623Z,0.50
2024-01-12T22:48:52.303Z,0.50
2024-01-12T22:51:30.871Z,0.40
2024-01-12T22:54:00.668Z,0.50
2024-01-12T22:56:30.591Z,0.50
2024-01-12T22:58:59.920Z,0.50
2024-01-12T23:01:27.817Z,0.40
2024-01-12T23:03:55.601Z,0.50
2024-01-12T23:06:23.349Z,0.50
2024-01-12T23:08:55.189Z,0.40
2024-01-12T23:11:25.684Z,0.50
2024-01-12T23:13:53.812Z,0.50
2024-01-12T23:16:23.238Z,0.50
2024-01-12T23:18:57.604Z,0.50
2024-01-12T23:21:26.229Z,0.50
2024-01-12T23:23:53.651Z,0.40
2024-01-12T23:26:26.756Z,0.50
2024-01-12T23:31:39.632Z,0.50
2024-01-12T23:34:12.114Z,0.50
2024-01-12T23:36:42.859Z,0.50
2024-01-12T23:39:16.027Z,0.50
2024-01-12T23:41:46.735Z,0.50
2024-01-12T23:44:15.443Z,0.40
2024-01-12T23:46:46.317Z,0.50
2024-01-12T23:49:18.641Z,0.50
2024-01-12T23:51:52.057Z,0.40
2024-01-12T23:54:29.644Z,0.50
2024-01-12T23:56:58.985Z,0.50
2024-01-12T23:59:28.677Z,0.50
